Time;durP1;ratioP1;P1;durP2;ratioP2;P2;SDS_P1;SDS_P2;PMS_P1;PMS_P2;Temp;Humidity;BMP_temperature;BMP_pressure;BME280_temperature;BME280_humidity;BME280_pressure;Samples;Min_cycle;Max_cycle;Signal;HPM_P1;HPM_P2
2022/11/13 00:00:24;;;;;;;15.70;13.15;;;5.80;99.90;;;;;;5015355;28;20060;-66
2022/11/13 00:02:50;;;;;;;16.40;12.27;;;5.80;99.90;;;;;;4998876;28;20085;-66
2022/11/13 00:05:16;;;;;;;16.73;12.48;;;5.90;99.90;;;;;;4998908;28;20073;-67
2022/11/13 00:07:41;;;;;;;18.10;13.30;;;6.00;99.90;;;;;;4999068;28;20414;-66
2022/11/13 00:10:08;;;;;;;16.50;12.38;;;6.00;99.90;;;;;;5015308;28;20034;-66
2022/11/13 00:12:33;;;;;;;16.85;13.02;;;6.00;99.90;;;;;;5015195;28;20482;-66
2022/11/13 00:14:59;;;;;;;18.13;14.38;;;6.00;99.90;;;;;;5015135;28;20053;-67
2022/11/13 00:17:24;;;;;;;16.30;12.98;;;6.00;99.90;;;;;;4998653;28;20543;-66
2022/11/13 00:19:50;;;;;;;16.70;12.50;;;6.00;99.90;;;;;;5015058;28;20078;-66
2022/11/13 00:22:15;;;;;;;19.08;13.43;;;6.00;99.90;;;;;;4998720;28;20042;-66
2022/11/13 00:24:41;;;;;;;17.27;14.25;;;6.10;99.90;;;;;;4998663;28;20410;-66
2022/11/13 00:27:06;;;;;;;18.95;13.10;;;6.10;99.90;;;;;;5014834;28;20046;-66
2022/11/13 00:29:32;;;;;;;17.50;12.80;;;6.10;99.90;;;;;;5016042;28;20129;-66
2022/11/13 00:31:57;;;;;;;18.30;13.75;;;6.20;99.90;;;;;;4998539;28;20045;-67
2022/11/13 00:34:23;;;;;;;18.38;13.07;;;6.20;99.90;;;;;;5015080;28;20398;-67
2022/11/13 00:36:48;;;;;;;16.27;12.32;;;6.20;99.90;;;;;;4998706;28;20088;-67
2022/11/13 00:39:14;;;;;;;15.68;11.13;;;6.20;99.90;;;;;;5014684;28;20513;-66
2022/11/13 00:41:40;;;;;;;13.02;9.38;;;6.20;99.90;;;;;;4998375;28;20041;-66
2022/11/13 00:44:05;;;;;;;16.02;10.43;;;6.20;99.90;;;;;;4998313;28;20045;-66
2022/11/13 00:46:31;;;;;;;13.52;9.88;;;6.20;99.90;;;;;;5014480;28;20105;-66
2022/11/13 00:48:56;;;;;;;14.60;11.32;;;6.20;99.90;;;;;;5014073;28;20125;-67
2022/11/13 00:51:22;;;;;;;17.30;12.23;;;6.20;99.90;;;;;;4998047;28;20399;-67
2022/11/13 00:53:48;;;;;;;14.27;11.38;;;6.20;99.90;;;;;;5014446;28;20418;-66
2022/11/13 00:56:14;;;;;;;14.68;11.50;;;6.20;99.90;;;;;;4997921;28;20050;-67
2022/11/13 00:58:39;;;;;;;16.92;12.65;;;6.20;99.90;;;;;;5014303;28;20045;-67
2022/11/13 01:01:12;;;;;;;15.68;12.13;;;6.20;99.90;;;;;;5014532;28;20112;-66
2022/11/13 01:03:37;;;;;;;;;;;6.20;99.90;;;;;;5014423;28;20125;-67
2022/11/13 01:06:18;;;;;;;17.08;13.07;;;6.20;99.90;;;;;;5014192;28;20015;-66
2022/11/13 01:08:44;;;;;;;18.67;13.48;;;6.10;99.90;;;;;;5014058;28;20038;-66
2022/11/13 01:11:16;;;;;;;15.77;12.48;;;6.10;99.90;;;;;;5014091;28;20092;-66
2022/11/13 01:13:44;;;;;;;17.42;13.20;;;6.10;99.90;;;;;;4998039;28;20451;-66
2022/11/13 01:16:11;;;;;;;16.90;13.82;;;6.10;99.90;;;;;;5013869;28;20124;-66
2022/11/13 01:18:37;;;;;;;17.42;13.40;;;6.10;99.90;;;;;;5013982;28;20073;-66
2022/11/13 01:21:05;;;;;;;16.48;13.68;;;6.10;99.90;;;;;;5014172;28;20370;-67
2022/11/13 01:23:31;;;;;;;19.70;13.75;;;6.10;99.90;;;;;;5014047;28;20172;-66
2022/11/13 01:26:04;;;;;;;19.52;14.90;;;6.10;99.90;;;;;;5013885;28;20116;-67
2022/11/13 01:28:30;;;;;;;19.10;14.65;;;6.10;99.90;;;;;;4997545;28;20049;-67
2022/11/13 01:30:55;;;;;;;19.33;14.88;;;6.10;99.90;;;;;;5013705;28;20042;-66
2022/11/13 01:33:21;;;;;;;22.55;18.15;;;6.10;99.90;;;;;;4997412;28;20041;-66
2022/11/13 01:35:46;;;;;;;21.67;17.33;;;6.10;99.90;;;;;;4997266;28;20060;-67
2022/11/13 01:38:12;;;;;;;23.80;17.55;;;6.20;99.90;;;;;;4997317;28;20042;-66
2022/11/13 01:40:45;;;;;;;25.83;18.52;;;6.20;99.90;;;;;;5013562;28;20097;-66
2022/11/13 01:43:27;;;;;;;22.48;16.67;;;6.20;99.90;;;;;;4997206;28;20073;-67
2022/11/13 01:45:59;;;;;;;;;;;6.30;99.90;;;;;;5010279;28;20521;-66
2022/11/13 01:48:35;;;;;;;21.80;16.60;;;6.30;99.90;;;;;;4993025;28;19917;-66
2022/11/13 01:51:03;;;;;;;22.75;16.55;;;6.30;99.90;;;;;;4976954;28;20042;-66
2022/11/13 01:53:29;;;;;;;21.17;15.18;;;6.30;99.90;;;;;;4992901;28;20380;-66
2022/11/13 01:55:55;;;;;;;19.48;15.55;;;6.40;99.90;;;;;;4992849;28;20402;-66
2022/11/13 01:58:21;;;;;;;20.42;16.80;;;6.40;99.90;;;;;;4993060;28;20042;-66
2022/11/13 02:00:46;;;;;;;20.95;16.23;;;6.40;99.90;;;;;;4992383;28;20046;-66
2022/11/13 02:03:12;;;;;;;19.33;15.23;;;6.40;99.90;;;;;;4977078;28;20058;-67
2022/11/13 02:05:38;;;;;;;18.17;15.35;;;6.40;99.90;;;;;;4993451;28;20065;-67
2022/11/13 02:08:03;;;;;;;18.83;14.13;;;6.50;99.90;;;;;;4993391;28;20046;-66
2022/11/13 02:10:29;;;;;;;18.55;14.02;;;6.50;99.90;;;;;;4993662;28;20042;-67
2022/11/13 02:12:55;;;;;;;18.38;13.93;;;6.50;99.90;;;;;;4993667;28;20080;-66
2022/11/13 02:15:24;;;;;;;19.25;14.75;;;6.50;99.90;;;;;;4993258;28;20517;-67
2022/11/13 02:17:56;;;;;;;17.88;14.27;;;6.50;99.90;;;;;;4993126;28;20049;-67
2022/11/13 02:20:29;;;;;;;;;;;6.50;99.90;;;;;;4993750;28;20066;-66
2022/11/13 02:23:19;;;;;;;17.63;14.02;;;6.50;99.90;;;;;;4993282;28;19924;-66
2022/11/13 02:25:48;;;;;;;18.17;14.27;;;6.50;99.90;;;;;;4993458;28;20129;-66
2022/11/13 02:28:14;;;;;;;19.38;13.82;;;6.50;99.90;;;;;;4993058;28;20034;-66
2022/11/13 02:30:39;;;;;;;16.77;13.27;;;6.50;99.90;;;;;;4993148;28;20100;-66
2022/11/13 02:33:26;;;;;;;17.63;13.30;;;6.60;99.90;;;;;;4993095;28;20130;-66
2022/11/13 02:35:52;;;;;;;16.58;13.40;;;6.50;99.90;;;;;;4992965;28;20042;-66
2022/11/13 02:38:17;;;;;;;18.20;13.20;;;6.50;99.90;;;;;;4992894;28;20064;-66
2022/11/13 02:40:43;;;;;;;17.05;12.95;;;6.50;99.90;;;;;;4992860;28;21131;-66
2022/11/13 02:43:08;;;;;;;19.67;13.70;;;6.50;99.90;;;;;;4993155;28;20034;-66
2022/11/13 02:45:37;;;;;;;17.63;12.63;;;6.50;99.90;;;;;;4992800;28;20034;-66
2022/11/13 02:48:03;;;;;;;16.30;13.00;;;6.50;99.90;;;;;;4992734;28;20126;-66
2022/11/13 02:50:29;;;;;;;16.95;12.80;;;6.60;99.90;;;;;;4993065;28;20046;-66
2022/11/13 02:52:55;;;;;;;16.25;12.93;;;6.60;99.90;;;;;;4992733;28;20053;-67
2022/11/13 02:55:20;;;;;;;19.00;13.20;;;6.60;99.90;;;;;;4993014;28;20041;-66
2022/11/13 02:57:46;;;;;;;16.10;12.70;;;6.70;99.90;;;;;;4992567;28;20491;-67
2022/11/13 03:00:12;;;;;;;17.95;12.65;;;6.70;99.90;;;;;;4976829;28;20041;-66
2022/11/13 03:02:37;;;;;;;18.02;13.50;;;6.70;99.90;;;;;;4992476;28;20038;-66
2022/11/13 03:05:04;;;;;;;18.17;13.60;;;6.70;99.90;;;;;;4992675;28;20052;-66
2022/11/13 03:07:30;;;;;;;21.65;13.88;;;6.70;99.90;;;;;;4992529;28;20038;-66
2022/11/13 03:09:56;;;;;;;18.90;14.13;;;6.70;99.90;;;;;;4976329;28;20406;-67
2022/11/13 03:12:21;;;;;;;19.15;13.90;;;6.70;99.90;;;;;;4993682;28;20474;-67
2022/11/13 03:14:47;;;;;;;17.48;13.27;;;6.70;99.90;;;;;;4996991;28;20080;-66
2022/11/13 03:17:13;;;;;;;17.63;13.70;;;6.60;99.90;;;;;;4996908;28;20191;-66
2022/11/13 03:19:38;;;;;;;20.35;14.95;;;6.60;99.90;;;;;;4996634;28;20066;-66
2022/11/13 03:22:04;;;;;;;19.00;14.20;;;6.70;99.90;;;;;;4996586;28;20042;-66
2022/11/13 03:24:29;;;;;;;19.48;14.25;;;6.60;99.90;;;;;;4996525;28;20038;-66
2022/11/13 03:26:55;;;;;;;17.75;13.60;;;6.60;99.90;;;;;;4996456;28;20034;-66
2022/11/13 03:29:20;;;;;;;20.70;15.30;;;6.60;99.90;;;;;;4996385;28;20035;-66
2022/11/13 03:31:46;;;;;;;19.60;13.82;;;6.60;99.90;;;;;;4994629;28;20121;-66
2022/11/13 03:34:12;;;;;;;20.20;15.10;;;6.50;99.90;;;;;;4996340;28;20094;-66
2022/11/13 03:36:37;;;;;;;19.23;14.23;;;6.40;99.90;;;;;;4995820;28;20035;-67
2022/11/13 03:39:03;;;;;;;22.42;14.38;;;6.40;99.90;;;;;;4996000;28;20125;-66
2022/11/13 03:41:28;;;;;;;17.55;13.20;;;6.40;99.90;;;;;;4996193;28;20045;-66
2022/11/13 03:43:54;;;;;;;17.67;13.30;;;6.40;99.90;;;;;;4979990;28;20065;-66
2022/11/13 03:46:19;;;;;;;16.38;13.05;;;6.40;99.90;;;;;;4996176;28;20430;-67
2022/11/13 03:48:45;;;;;;;17.13;12.82;;;6.40;99.90;;;;;;4996002;28;20108;-67
2022/11/13 03:51:10;;;;;;;20.65;13.23;;;6.40;99.90;;;;;;4996008;28;20100;-67
2022/11/13 03:53:36;;;;;;;19.02;13.70;;;6.40;99.90;;;;;;4995969;28;21043;-66
2022/11/13 03:56:02;;;;;;;17.67;13.57;;;6.40;99.90;;;;;;4996411;28;20129;-66
2022/11/13 03:58:27;;;;;;;17.35;13.20;;;6.30;99.90;;;;;;4995737;28;20497;-66
2022/11/13 04:00:54;;;;;;;18.75;13.77;;;6.30;99.90;;;;;;4996083;28;20034;-67
2022/11/13 04:03:20;;;;;;;18.65;13.15;;;6.30;99.90;;;;;;4995806;28;20137;-66
2022/11/13 04:05:48;;;;;;;17.95;13.63;;;6.20;99.90;;;;;;4995696;28;20130;-66
2022/11/13 04:08:14;;;;;;;18.50;13.63;;;6.10;99.90;;;;;;4995635;28;20042;-67
2022/11/13 04:10:40;;;;;;;20.38;14.82;;;6.00;99.90;;;;;;4995635;28;20392;-66
2022/11/13 04:13:05;;;;;;;20.27;13.77;;;5.90;99.90;;;;;;4995692;28;20046;-67
2022/11/13 04:15:31;;;;;;;18.23;13.43;;;5.90;99.90;;;;;;4995624;28;20034;-66
2022/11/13 04:17:57;;;;;;;19.40;14.02;;;6.00;99.90;;;;;;4995411;28;20046;-67
2022/11/13 04:20:22;;;;;;;17.95;12.95;;;6.00;99.90;;;;;;4995473;28;20076;-66
2022/11/13 04:22:48;;;;;;;16.50;12.25;;;6.00;99.90;;;;;;4995475;28;20034;-66
2022/11/13 04:25:13;;;;;;;16.92;13.18;;;6.00;99.90;;;;;;4978346;28;20038;-66
2022/11/13 04:27:39;;;;;;;17.90;14.50;;;6.10;99.90;;;;;;4995625;28;20525;-66
2022/11/13 04:30:05;;;;;;;17.50;13.13;;;6.10;99.90;;;;;;4995152;28;20089;-66
2022/11/13 04:32:31;;;;;;;17.65;13.73;;;6.10;99.90;;;;;;4995277;28;20061;-67
2022/11/13 04:34:57;;;;;;;20.30;13.70;;;6.10;99.90;;;;;;4995274;28;20050;-66
2022/11/13 04:37:22;;;;;;;19.83;13.45;;;6.10;99.90;;;;;;4995164;28;20039;-66
2022/11/13 04:39:48;;;;;;;17.40;14.02;;;6.00;99.90;;;;;;4995041;28;20100;-67
2022/11/13 04:44:58;;;;;;;18.52;14.10;;;6.10;99.90;;;;;;4995298;28;20129;-67
2022/11/13 04:47:23;;;;;;;17.48;13.15;;;6.00;99.90;;;;;;4995042;28;20185;-66
2022/11/13 04:49:49;;;;;;;17.77;13.45;;;6.00;99.90;;;;;;4994866;28;20038;-66
2022/11/13 04:52:14;;;;;;;17.48;14.02;;;6.00;99.90;;;;;;4994904;28;20062;-67
2022/11/13 04:54:40;;;;;;;16.83;13.52;;;6.00;99.90;;;;;;4995108;28;20057;-66
2022/11/13 04:57:05;;;;;;;19.33;13.00;;;6.00;99.90;;;;;;4994786;28;20046;-67
2022/11/13 04:59:31;;;;;;;17.88;12.98;;;6.00;99.90;;;;;;4994635;28;20058;-67
2022/11/13 05:01:57;;;;;;;17.77;13.02;;;6.10;99.90;;;;;;4994669;28;20052;-67
2022/11/13 05:04:22;;;;;;;15.88;13.00;;;6.10;99.90;;;;;;4994508;28;20086;-66
2022/11/13 05:06:48;;;;;;;16.85;13.10;;;6.00;99.90;;;;;;4994726;28;20101;-66
2022/11/13 05:09:15;;;;;;;16.52;12.55;;;6.10;99.90;;;;;;4994657;28;20434;-66
2022/11/13 05:11:40;;;;;;;17.52;12.25;;;6.10;99.90;;;;;;4994640;28;20042;-66
2022/11/13 05:14:06;;;;;;;14.88;11.65;;;6.10;99.90;;;;;;4994520;28;20042;-67
2022/11/13 05:16:34;;;;;;;18.20;13.25;;;6.10;99.90;;;;;;4994478;28;20053;-66
2022/11/13 05:19:00;;;;;;;15.65;11.48;;;6.10;99.90;;;;;;4994384;28;20104;-67
2022/11/13 05:21:26;;;;;;;16.92;12.35;;;6.10;99.90;;;;;;4994422;28;20073;-66
2022/11/13 05:23:51;;;;;;;15.88;12.35;;;6.10;99.90;;;;;;4994612;28;20035;-67
2022/11/13 05:26:17;;;;;;;17.38;12.60;;;6.10;99.90;;;;;;4994328;28;20089;-67
2022/11/13 05:28:42;;;;;;;17.40;12.15;;;6.00;99.90;;;;;;4994291;28;20129;-66
2022/11/13 05:31:15;;;;;;;16.55;11.98;;;5.90;99.90;;;;;;4994510;28;20050;-66
2022/11/13 05:33:41;;;;;;;17.58;13.65;;;5.90;99.90;;;;;;4994425;28;20395;-67
2022/11/13 05:36:12;;;;;;;16.73;11.88;;;5.90;99.90;;;;;;4994337;28;20042;-66
2022/11/13 05:38:39;;;;;;;15.57;12.43;;;5.90;99.90;;;;;;4993965;28;20039;-67
2022/11/13 05:41:16;;;;;;;17.50;13.23;;;5.80;99.90;;;;;;4994003;28;20042;-66
2022/11/13 05:43:42;;;;;;;17.08;13.60;;;5.80;99.90;;;;;;4994216;28;20420;-67
2022/11/13 05:46:16;;;;;;;17.85;13.35;;;5.80;99.90;;;;;;4993802;28;20042;-67
2022/11/13 05:48:42;;;;;;;16.00;12.30;;;5.80;99.90;;;;;;4994115;28;20046;-66
2022/11/13 05:51:20;;;;;;;16.98;12.25;;;5.80;99.90;;;;;;4993687;28;20548;-66
2022/11/13 05:53:46;;;;;;;18.10;12.80;;;5.70;99.90;;;;;;4993786;28;20053;-66
2022/11/13 05:56:20;;;;;;;17.58;13.20;;;5.70;99.90;;;;;;4993685;28;20034;-66
2022/11/13 05:58:47;;;;;;;16.73;12.75;;;5.70;99.90;;;;;;4993716;28;20042;-66
2022/11/13 06:01:19;;;;;;;18.38;14.40;;;5.60;99.90;;;;;;4993580;28;20046;-66
2022/11/13 06:03:45;;;;;;;18.45;14.48;;;5.60;99.90;;;;;;4993508;28;20495;-66
2022/11/13 06:06:13;;;;;;;17.55;13.77;;;5.60;99.90;;;;;;4993767;28;20433;-66
2022/11/13 06:08:40;;;;;;;18.27;14.15;;;5.60;99.90;;;;;;4993556;28;20128;-66
2022/11/13 06:11:25;;;;;;;21.23;14.93;;;5.60;99.90;;;;;;4993329;28;20057;-66
2022/11/13 06:13:52;;;;;;;20.05;14.25;;;5.60;99.90;;;;;;4993466;28;20121;-66
2022/11/13 06:16:21;;;;;;;18.77;14.00;;;5.50;99.90;;;;;;4993531;28;20038;-66
2022/11/13 06:18:48;;;;;;;21.95;15.27;;;5.50;99.90;;;;;;4993189;28;20042;-66
2022/11/13 06:21:16;;;;;;;19.10;15.60;;;5.50;99.90;;;;;;4993129;28;20124;-66
2022/11/13 06:23:42;;;;;;;18.25;14.07;;;5.50;99.90;;;;;;4993436;28;20042;-66
2022/11/13 06:26:14;;;;;;;20.23;14.77;;;5.50;99.90;;;;;;4993495;28;20540;-66
2022/11/13 06:28:40;;;;;;;18.70;14.00;;;5.50;99.90;;;;;;4993224;28;20046;-66
2022/11/13 06:31:15;;;;;;;16.67;12.77;;;5.50;99.90;;;;;;4993017;28;20045;-66
2022/11/13 06:33:41;;;;;;;18.30;12.70;;;5.50;99.90;;;;;;4993043;28;20049;-67
2022/11/13 06:36:14;;;;;;;17.85;13.10;;;5.40;99.90;;;;;;4993054;28;20077;-66
2022/11/13 06:38:41;;;;;;;15.18;11.35;;;5.40;99.90;;;;;;4993112;28;20407;-66
2022/11/13 06:41:08;;;;;;;17.15;11.95;;;5.40;99.90;;;;;;4993135;28;20069;-66
2022/11/13 06:43:34;;;;;;;15.88;12.23;;;5.40;99.90;;;;;;4992872;28;20058;-66
2022/11/13 06:46:04;;;;;;;18.70;12.85;;;5.40;99.90;;;;;;4992876;28;20602;-66
2022/11/13 06:48:29;;;;;;;18.20;12.95;;;5.40;99.90;;;;;;4992455;28;20053;-66
2022/11/13 06:50:59;;;;;;;18.65;13.88;;;5.50;99.90;;;;;;4992755;28;20038;-66
2022/11/13 06:53:24;;;;;;;19.10;12.90;;;5.50;99.90;;;;;;4992836;28;20042;-67
2022/11/13 06:55:50;;;;;;;19.23;13.50;;;5.50;99.90;;;;;;4976875;28;20049;-66
2022/11/13 06:58:15;;;;;;;20.15;14.15;;;5.50;99.90;;;;;;4992926;28;20557;-66
2022/11/13 07:00:42;;;;;;;17.73;12.65;;;5.50;99.90;;;;;;4992926;28;20035;-66
2022/11/13 07:03:22;;;;;;;18.05;12.93;;;5.50;99.90;;;;;;4992519;28;20057;-67
2022/11/13 07:05:48;;;;;;;18.75;13.88;;;5.50;99.90;;;;;;4993003;28;20053;-66
2022/11/13 07:08:14;;;;;;;18.00;12.88;;;5.50;99.90;;;;;;4992934;28;20038;-67
2022/11/13 07:10:41;;;;;;;18.30;13.25;;;5.50;99.90;;;;;;4992523;28;20046;-66
2022/11/13 07:13:07;;;;;;;19.85;14.13;;;5.50;99.90;;;;;;4992805;28;20035;-66
2022/11/13 07:15:37;;;;;;;18.35;13.52;;;5.50;99.90;;;;;;4992822;28;20044;-66
2022/11/13 07:18:04;;;;;;;16.95;12.25;;;5.50;99.90;;;;;;4992493;28;20078;-67
2022/11/13 07:20:29;;;;;;;18.92;12.13;;;5.50;99.90;;;;;;4992410;28;20136;-66
2022/11/13 07:22:57;;;;;;;17.50;13.32;;;5.50;99.90;;;;;;4992625;28;20519;-66
2022/11/13 07:25:23;;;;;;;18.15;12.93;;;5.50;99.90;;;;;;4992470;28;20124;-66
2022/11/13 07:27:49;;;;;;;19.13;13.52;;;5.50;99.90;;;;;;4992540;28;20038;-66
2022/11/13 07:30:14;;;;;;;16.15;11.80;;;5.50;99.90;;;;;;4992299;28;20053;-66
2022/11/13 07:32:40;;;;;;;16.92;12.48;;;5.50;99.90;;;;;;4992353;28;20038;-66
2022/11/13 07:35:06;;;;;;;17.70;13.05;;;5.50;99.90;;;;;;4976213;28;20133;-66
2022/11/13 07:37:31;;;;;;;16.90;13.27;;;5.50;99.90;;;;;;4992352;28;20410;-66
2022/11/13 07:39:57;;;;;;;17.52;13.05;;;5.50;99.90;;;;;;4992189;28;20034;-66
2022/11/13 07:42:23;;;;;;;17.95;13.02;;;5.60;99.90;;;;;;4992383;28;20070;-66
2022/11/13 07:44:48;;;;;;;18.30;13.43;;;5.60;99.90;;;;;;4992360;28;20038;-66
2022/11/13 07:47:14;;;;;;;17.27;13.35;;;5.50;99.90;;;;;;4992249;28;20125;-66
2022/11/13 07:49:39;;;;;;;16.15;13.07;;;5.60;99.90;;;;;;4992274;28;20038;-66
2022/11/13 07:52:05;;;;;;;16.08;12.10;;;5.60;99.90;;;;;;4992159;28;20050;-66
2022/11/13 07:54:30;;;;;;;16.27;12.10;;;5.60;99.90;;;;;;4992213;28;20093;-66
2022/11/13 07:56:56;;;;;;;16.52;12.38;;;5.70;99.90;;;;;;4992504;28;20041;-66
2022/11/13 07:59:21;;;;;;;16.48;11.75;;;5.70;99.90;;;;;;4992721;28;20045;-66
2022/11/13 08:01:47;;;;;;;15.90;12.90;;;5.70;99.90;;;;;;4995741;28;20384;-66
2022/11/13 08:04:12;;;;;;;19.17;12.45;;;5.70;99.90;;;;;;4995687;28;20077;-67
2022/11/13 08:06:38;;;;;;;17.52;12.10;;;5.70;99.90;;;;;;4996108;28;20097;-67
2022/11/13 08:09:04;;;;;;;16.55;12.35;;;5.70;99.90;;;;;;4995785;28;20038;-66
2022/11/13 08:11:30;;;;;;;17.65;12.20;;;5.80;99.90;;;;;;4995627;28;20057;-66
2022/11/13 08:13:56;;;;;;;18.25;12.65;;;5.80;99.90;;;;;;4995930;28;20038;-67
2022/11/13 08:16:22;;;;;;;17.25;12.05;;;5.90;99.90;;;;;;4995852;28;20042;-67
2022/11/13 08:18:48;;;;;;;17.25;13.15;;;5.90;99.90;;;;;;4995507;28;20046;-66
2022/11/13 08:21:14;;;;;;;17.80;13.55;;;5.90;99.90;;;;;;4995473;28;20034;-67
2022/11/13 08:23:41;;;;;;;15.93;12.68;;;6.00;99.90;;;;;;4995442;28;20563;-67
2022/11/13 08:26:07;;;;;;;17.90;12.80;;;6.00;99.90;;;;;;4995430;28;20518;-67
2022/11/13 08:28:34;;;;;;;18.40;13.05;;;6.00;99.90;;;;;;4995288;28;20533;-67
2022/11/13 08:30:59;;;;;;;16.23;12.45;;;6.10;99.90;;;;;;4995158;28;20042;-66
2022/11/13 08:33:25;;;;;;;18.10;13.70;;;6.10;99.90;;;;;;4995488;28;20141;-66
2022/11/13 08:35:55;;;;;;;19.00;13.10;;;6.20;99.90;;;;;;4995273;28;20046;-67
2022/11/13 08:38:21;;;;;;;16.73;12.55;;;6.20;99.90;;;;;;4995350;28;20113;-67
2022/11/13 08:40:47;;;;;;;18.00;12.43;;;6.30;99.90;;;;;;4995049;28;20046;-67
2022/11/13 08:43:12;;;;;;;18.17;13.23;;;6.40;99.90;;;;;;4995166;28;20034;-67
2022/11/13 08:45:38;;;;;;;17.90;13.88;;;6.40;99.90;;;;;;4995268;28;20046;-67
2022/11/13 08:48:04;;;;;;;18.73;13.63;;;6.50;99.90;;;;;;4995347;28;20082;-67
2022/11/13 08:50:31;;;;;;;18.55;13.40;;;6.50;99.90;;;;;;4994943;28;20521;-67
2022/11/13 08:52:58;;;;;;;17.55;13.35;;;6.60;99.90;;;;;;4994870;28;20057;-67
2022/11/13 08:55:24;;;;;;;18.83;14.18;;;6.60;99.90;;;;;;4994882;28;20042;-67
2022/11/13 08:57:50;;;;;;;16.98;13.98;;;6.70;99.90;;;;;;4994705;28;20101;-67
2022/11/13 09:00:16;;;;;;;16.83;13.13;;;6.70;99.90;;;;;;4994798;28;20443;-67
2022/11/13 09:02:42;;;;;;;17.98;13.13;;;6.80;99.90;;;;;;4994534;28;20557;-67
2022/11/13 09:05:08;;;;;;;20.45;13.68;;;6.90;99.90;;;;;;4994776;28;20046;-67
2022/11/13 09:07:34;;;;;;;18.88;13.07;;;7.00;99.90;;;;;;4994598;28;20041;-67
2022/11/13 09:09:59;;;;;;;16.98;12.85;;;7.00;99.90;;;;;;4994526;28;20453;-67
2022/11/13 09:12:25;;;;;;;16.13;12.65;;;7.20;99.90;;;;;;4994468;28;20505;-66
2022/11/13 09:14:51;;;;;;;19.38;12.95;;;7.20;99.90;;;;;;4994552;28;20046;-67
2022/11/13 09:17:16;;;;;;;16.75;13.07;;;7.30;99.90;;;;;;4994740;28;20042;-67
2022/11/13 09:19:42;;;;;;;16.98;13.85;;;7.40;99.90;;;;;;4994311;28;20129;-67
2022/11/13 09:22:08;;;;;;;16.98;13.60;;;7.40;99.90;;;;;;4994250;28;20130;-67
2022/11/13 09:24:34;;;;;;;17.15;13.23;;;7.50;99.90;;;;;;4978095;28;20038;-67
2022/11/13 09:27:00;;;;;;;17.05;13.13;;;7.60;99.90;;;;;;4994226;28;20410;-67
2022/11/13 09:29:27;;;;;;;17.70;13.65;;;7.60;99.90;;;;;;4994554;28;20049;-67
2022/11/13 09:31:54;;;;;;;16.42;12.30;;;7.80;99.90;;;;;;4994096;28;20049;-67
2022/11/13 09:34:19;;;;;;;16.60;13.02;;;7.90;99.90;;;;;;4994489;28;20133;-67
2022/11/13 09:36:45;;;;;;;17.23;12.98;;;8.00;99.90;;;;;;4994080;28;20081;-67
2022/11/13 09:39:11;;;;;;;17.08;12.48;;;8.00;99.90;;;;;;4994089;28;20561;-67
2022/11/13 09:42:01;;;;;;;15.32;12.85;;;8.10;99.90;;;;;;4994226;28;20034;-67
2022/11/13 09:44:43;;;;;;;14.85;11.98;;;8.30;99.90;;;;;;4977842;28;20053;-67
2022/11/13 09:47:17;;;;;;;15.35;11.82;;;8.30;99.90;;;;;;4993953;28;20044;-67
2022/11/13 09:49:52;;;;;;;15.18;12.52;;;8.40;99.90;;;;;;4993811;28;20042;-67
2022/11/13 09:52:35;;;;;;;14.25;11.65;;;8.50;99.90;;;;;;4993732;28;20046;-67
2022/11/13 09:55:03;;;;;;;14.70;11.80;;;8.50;99.90;;;;;;4994079;28;20092;-67
2022/11/13 09:57:35;;;;;;;14.60;12.13;;;8.50;99.90;;;;;;4993819;28;20038;-67
2022/11/13 10:00:12;;;;;;;18.05;13.25;;;8.60;99.90;;;;;;4977292;28;20557;-67
2022/11/13 10:03:05;;;;;;;16.25;13.30;;;8.60;99.90;;;;;;4993140;28;20130;-67
2022/11/13 10:05:44;;;;;;;17.10;12.90;;;8.60;99.90;;;;;;4993531;28;20046;-67
2022/11/13 10:08:18;;;;;;;16.30;12.57;;;8.70;99.90;;;;;;4993663;28;20132;-67
2022/11/13 10:10:48;;;;;;;17.20;12.45;;;8.80;99.90;;;;;;4994001;28;20391;-67
2022/11/13 10:13:32;;;;;;;16.40;12.75;;;8.90;99.90;;;;;;4993619;28;20053;-67
2022/11/13 10:16:23;;;;;;;13.77;11.65;;;8.90;99.90;;;;;;4993638;28;20050;-67
2022/11/13 10:18:50;;;;;;;16.80;13.02;;;8.90;99.90;;;;;;4992877;28;20073;-67
2022/11/13 10:21:32;;;;;;;14.45;11.80;;;9.00;99.90;;;;;;4993283;28;20081;-67
2022/11/13 10:24:03;;;;;;;15.95;12.25;;;9.00;99.90;;;;;;4992788;28;20545;-67
2022/11/13 10:26:28;;;;;;;15.10;12.65;;;9.10;99.90;;;;;;4993320;28;20034;-67
2022/11/13 10:29:16;;;;;;;16.35;12.85;;;9.20;99.90;;;;;;4993454;28;20043;-67
2022/11/13 10:31:48;;;;;;;15.07;12.43;;;9.30;99.90;;;;;;4976966;28;20475;-67
2022/11/13 10:34:14;;;;;;;14.15;11.65;;;9.30;99.90;;;;;;4993321;28;20415;-67
2022/11/13 10:36:53;;;;;;;16.08;12.32;;;9.40;99.90;;;;;;4993070;28;20081;-67
2022/11/13 10:39:18;;;;;;;14.98;12.32;;;9.40;99.90;;;;;;4976801;28;20038;-66
2022/11/13 10:41:46;;;;;;;17.08;12.40;;;9.40;99.90;;;;;;4993232;28;20046;-67
2022/11/13 10:44:25;;;;;;;15.70;12.73;;;9.40;99.90;;;;;;4976643;28;20050;-67
2022/11/13 10:46:50;;;;;;;16.00;11.50;;;9.50;99.90;;;;;;4992655;28;20482;-67
2022/11/13 10:49:27;;;;;;;16.02;12.77;;;9.60;99.90;;;;;;4992770;28;20084;-67
2022/11/13 10:51:58;;;;;;;15.32;11.82;;;9.60;99.90;;;;;;4992806;28;20049;-67
2022/11/13 10:54:29;;;;;;;14.07;11.40;;;9.60;99.90;;;;;;4992808;28;20129;-67
2022/11/13 10:57:01;;;;;;;14.68;12.63;;;9.70;99.90;;;;;;4992741;28;20045;-67
2022/11/13 10:59:40;;;;;;;13.65;10.73;;;9.80;99.90;;;;;;4992627;28;20093;-67
2022/11/13 11:02:18;;;;;;;14.65;11.25;;;9.90;99.90;;;;;;4992901;28;20491;-67
2022/11/13 11:04:44;;;;;;;14.07;10.48;;;9.90;99.90;;;;;;4992459;28;20506;-67
2022/11/13 11:07:17;;;;;;;14.23;10.30;;;10.00;99.90;;;;;;4992635;28;20046;-67
2022/11/13 11:09:45;;;;;;;13.32;10.25;;;10.10;99.90;;;;;;4976641;28;20061;-67
2022/11/13 11:12:22;;;;;;;12.75;10.00;;;10.10;99.90;;;;;;4992462;28;20042;-67
2022/11/13 11:15:00;;;;;;;12.43;9.65;;;10.20;99.90;;;;;;4992947;28;20043;-67
2022/11/13 11:17:38;;;;;;;14.32;10.50;;;10.20;99.90;;;;;;4992504;28;20495;-67
2022/11/13 11:20:41;;;;;;;13.27;10.20;;;10.30;99.90;;;;;;4992451;28;20403;-67
2022/11/13 11:23:44;;;;;;;14.93;10.65;;;10.30;99.90;;;;;;4992408;28;20038;-67
2022/11/13 11:26:28;;;;;;;13.05;10.43;;;10.30;99.90;;;;;;4992763;28;20046;-67
2022/11/13 11:29:29;;;;;;;13.15;9.57;;;10.40;99.90;;;;;;4992496;28;20046;-67
2022/11/13 11:32:40;;;;;;;12.32;9.57;;;10.40;99.90;;;;;;4992435;28;20096;-67
2022/11/13 11:35:17;;;;;;;13.15;10.23;;;10.50;99.90;;;;;;4978087;28;20062;-67
2022/11/13 11:38:24;;;;;;;13.88;10.07;;;10.50;99.90;;;;;;4996300;28;20038;-67
2022/11/13 11:40:55;;;;;;;13.55;9.82;;;10.60;99.90;;;;;;4995981;28;20392;-67
2022/11/13 11:43:33;;;;;;;14.95;10.80;;;10.60;99.90;;;;;;4979939;28;20507;-67
2022/11/13 11:45:58;;;;;;;12.85;9.85;;;10.70;99.90;;;;;;4996269;28;20522;-67
2022/11/13 11:48:30;;;;;;;11.77;9.30;;;10.70;99.90;;;;;;4979860;28;20078;-67
2022/11/13 11:51:20;;;;;;;12.82;10.05;;;10.70;99.90;;;;;;4996091;28;20046;-67
2022/11/13 11:53:49;;;;;;;14.15;10.02;;;10.80;99.90;;;;;;4979913;28;20447;-67
2022/11/13 11:56:33;;;;;;;11.75;8.95;;;10.80;99.90;;;;;;4995940;28;20046;-67
2022/11/13 11:59:22;;;;;;;13.07;9.60;;;10.80;99.90;;;;;;4995960;28;20459;-67
2022/11/13 12:02:13;;;;;;;12.20;9.30;;;10.90;99.90;;;;;;4996130;28;20035;-67
2022/11/13 12:05:00;;;;;;;13.45;9.50;;;10.90;99.90;;;;;;4979437;28;20195;-67
2022/11/13 12:07:53;;;;;;;12.13;10.20;;;10.90;99.90;;;;;;4995735;28;20042;-67
2022/11/13 12:10:41;;;;;;;12.23;9.68;;;11.00;99.90;;;;;;4979865;28;20121;-67
2022/11/13 12:13:30;;;;;;;13.40;11.00;;;11.00;99.90;;;;;;4995705;28;20045;-67
2022/11/13 12:16:03;;;;;;;17.65;12.27;;;11.00;99.90;;;;;;4995947;28;20138;-67
2022/11/13 12:19:03;;;;;;;14.05;10.70;;;11.10;99.90;;;;;;4995806;28;20420;-67
2022/11/13 12:22:15;;;;;;;17.88;13.18;;;11.10;99.90;;;;;;4995587;28;20045;-67
2022/11/13 12:24:52;;;;;;;13.10;9.77;;;11.10;99.90;;;;;;4977708;28;20054;-67
2022/11/13 12:27:24;;;;;;;13.90;9.68;;;11.10;99.90;;;;;;4979235;28;20372;-68
2022/11/13 12:30:19;;;;;;;12.32;9.73;;;11.20;99.90;;;;;;4979142;28;20057;-67
2022/11/13 12:33:03;;;;;;;14.27;10.63;;;11.20;99.90;;;;;;4995362;28;20046;-67
2022/11/13 12:35:29;;;;;;;13.02;10.20;;;11.30;99.90;;;;;;4979049;28;20050;-67
2022/11/13 12:37:58;;;;;;;13.63;10.45;;;11.30;99.90;;;;;;4995528;28;20045;-67
2022/11/13 12:40:35;;;;;;;12.88;9.27;;;11.30;99.90;;;;;;4995145;28;20529;-67
2022/11/13 12:43:30;;;;;;;11.90;9.43;;;11.30;99.90;;;;;;4995492;28;20074;-67
2022/11/13 12:46:02;;;;;;;12.30;9.85;;;11.30;99.90;;;;;;4994731;28;20376;-68
2022/11/13 12:48:34;;;;;;;13.05;9.57;;;11.30;99.90;;;;;;4995363;28;20042;-67
2022/11/13 12:51:02;;;;;;;12.88;9.85;;;11.30;99.90;;;;;;4978828;28;20050;-68
2022/11/13 12:53:41;;;;;;;12.48;9.73;;;11.30;99.90;;;;;;4978915;28;20447;-67